Main page
METAR-TAF:

METAR-TAF

Airports :

Parma Airport

Parma, Italy

latitude: 44-49-17N, longitude: 010-17-41E, elevation: 50 m

Current weather observation

The report was made 33 minutes ago, at 13:50 UTC
Wind 3 kt from the East, varying between North/Northeast and South/Southeast
Temperature 29°C
Humidity 40%
Pressure 1015 hPa
Visibility 10 km or more
no clouds below 1500 m and no cumulonimbus

METAR: LIMP 171350Z 10003KT 030V160 CAVOK 29/14 Q1015

Time: 16:23 (14:23 UTC)

Forecast

The report was made 3 hours and 23 minutes ago, at 11:00 UTC
Forecast valid from 17 at 12 UTC to 18 at 12 UTC
Wind 4 kt from variable directions
Visibility 10 km or more
no clouds below 1500 m and no cumulonimbus
Becoming
from 17 at 19 UTC to 17 at 21 UTC
Wind 10 kt from the West/Southwest
Becoming
from 18 at 00 UTC to 18 at 02 UTC
Wind 4 kt from variable directions

TAF: LIMP 171100Z 1712/1812 VRB04KT CAVOK BECMG 1719/1721 24010KT BECMG 1800/1802 VRB04KT

Weather observations and forecasts of more than 4000 airports (METAR and TAF reports).

The available stations are represented by yellow and red dots on the map.

Hover mouse over dot to see the name of the station.

Then click to see weather observations and forecasts.

To change the map : click on the green buttons with a black cross to zoom in, on the green button with a dash to zoom out, or on the green arrows for adjacent maps.


METAR-TAF: